createdAt,value
2018-01-27T00:02:10.984Z,97.70
2018-01-27T00:04:37.302Z,97.60
2018-01-27T00:07:04.476Z,97.20
2018-01-27T00:09:31.037Z,97.20
2018-01-27T00:11:57.128Z,97.00
2018-01-27T00:14:23.201Z,96.90
2018-01-27T00:16:49.254Z,96.70
2018-01-27T00:19:15.293Z,96.70
2018-01-27T00:21:42.069Z,96.70
2018-01-27T00:24:08.117Z,96.70
2018-01-27T00:26:34.366Z,96.50
2018-01-27T00:29:00.417Z,96.50
2018-01-27T00:31:27.189Z,96.70
2018-01-27T00:33:54.157Z,96.70
2018-01-27T00:36:20.198Z,96.70
2018-01-27T00:38:47.336Z,96.60
2018-01-27T00:41:14.209Z,96.70
2018-01-27T00:43:40.233Z,96.70
2018-01-27T00:46:07.029Z,96.70
2018-01-27T00:48:33.086Z,96.70
2018-01-27T00:50:59.107Z,96.70
2018-01-27T00:53:25.160Z,96.70
2018-01-27T00:55:51.165Z,96.60
2018-01-27T00:58:17.202Z,96.40
2018-01-27T01:00:43.252Z,96.60
2018-01-27T01:03:09.280Z,96.70
2018-01-27T01:05:35.305Z,96.60
2018-01-27T01:08:01.728Z,96.50
2018-01-27T01:10:28.689Z,96.20
2018-01-27T01:12:55.456Z,96.80
2018-01-27T01:15:21.542Z,96.80
2018-01-27T01:17:47.850Z,96.60
2018-01-27T01:20:14.226Z,96.60
2018-01-27T01:22:40.528Z,96.60
2018-01-27T01:25:07.489Z,97.00
2018-01-27T01:27:34.601Z,96.80
2018-01-27T01:30:00.804Z,96.60
2018-01-27T01:32:27.081Z,96.60
2018-01-27T01:34:53.305Z,96.40
2018-01-27T01:37:19.496Z,96.50
2018-01-27T01:39:45.753Z,97.10
2018-01-27T01:42:18.215Z,97.00
2018-01-27T01:44:44.420Z,96.70
2018-01-27T01:47:10.669Z,96.80
2018-01-27T01:49:37.065Z,96.60
2018-01-27T01:52:03.268Z,96.10
2018-01-27T01:54:29.501Z,96.70
2018-01-27T01:56:55.697Z,97.00
2018-01-27T01:59:21.921Z,97.60
2018-01-27T02:01:48.873Z,98.30
2018-01-27T02:04:15.108Z,98.20
2018-01-27T02:06:41.285Z,98.20
2018-01-27T02:09:07.496Z,97.60
2018-01-27T02:11:33.765Z,97.30
2018-01-27T02:14:00.000Z,97.30
2018-01-27T02:16:26.223Z,97.40
2018-01-27T02:18:52.432Z,97.40
2018-01-27T02:21:18.532Z,97.70
2018-01-27T02:23:44.557Z,97.60
2018-01-27T02:26:10.600Z,97.00
2018-01-27T02:28:36.619Z,97.00
2018-01-27T02:31:05.629Z,96.60
2018-01-27T02:33:32.389Z,96.60
2018-01-27T02:35:59.389Z,96.50
2018-01-27T02:38:26.512Z,96.10
2018-01-27T02:40:52.844Z,96.10
2018-01-27T02:43:19.984Z,96.40
2018-01-27T02:45:46.964Z,96.50
2018-01-27T02:48:13.332Z,96.50
2018-01-27T02:50:40.312Z,96.40
2018-01-27T02:53:06.747Z,96.40
2018-01-27T02:55:33.208Z,96.50
2018-01-27T02:58:00.197Z,95.80
2018-01-27T03:00:26.434Z,95.70
2018-01-27T03:02:52.638Z,96.50
2018-01-27T03:05:19.179Z,96.60
2018-01-27T03:07:45.408Z,96.60
2018-01-27T03:10:11.702Z,96.00
2018-01-27T03:12:38.021Z,96.10
2018-01-27T03:15:04.984Z,95.80
2018-01-27T03:17:31.208Z,95.80
2018-01-27T03:19:57.444Z,95.60
2018-01-27T03:22:23.656Z,95.60
2018-01-27T03:24:49.876Z,95.60
2018-01-27T03:27:16.845Z,95.90
2018-01-27T03:29:43.071Z,95.90
2018-01-27T03:32:10.024Z,95.40
2018-01-27T03:34:36.224Z,95.40
2018-01-27T03:37:02.456Z,95.30
2018-01-27T03:39:28.649Z,95.60
2018-01-27T03:41:55.620Z,95.30
2018-01-27T03:44:21.839Z,95.30
2018-01-27T03:46:48.053Z,95.30
2018-01-27T03:49:14.297Z,95.40
2018-01-27T03:51:41.911Z,95.30
2018-01-27T03:54:08.196Z,95.40
2018-01-27T03:56:34.396Z,95.40
2018-01-27T03:59:00.624Z,95.30
2018-01-27T04:01:26.864Z,95.40
2018-01-27T04:03:53.836Z,95.30
2018-01-27T04:06:20.047Z,95.30
2018-01-27T04:08:46.265Z,95.30
2018-01-27T04:11:12.469Z,95.30
2018-01-27T04:13:40.037Z,95.30
2018-01-27T04:16:06.332Z,95.30
2018-01-27T04:18:32.543Z,95.30
2018-01-27T04:20:58.768Z,95.30
2018-01-27T04:23:24.992Z,95.30
2018-01-27T04:25:51.945Z,95.50
2018-01-27T04:28:18.908Z,95.40
2018-01-27T04:30:45.468Z,95.40
2018-01-27T04:33:12.404Z,95.60
2018-01-27T04:35:38.639Z,95.60
2018-01-27T04:38:07.612Z,95.80
2018-01-27T04:40:33.884Z,95.80
2018-01-27T04:43:01.945Z,95.80
2018-01-27T04:45:28.185Z,95.80
2018-01-27T04:47:54.425Z,95.80
2018-01-27T04:50:20.665Z,95.60
2018-01-27T04:52:46.852Z,95.80
2018-01-27T04:55:13.808Z,95.60
2018-01-27T04:57:40.032Z,95.70
2018-01-27T05:00:06.244Z,95.90
2018-01-27T05:02:32.447Z,96.20
2018-01-27T05:04:58.659Z,96.50
2018-01-27T05:07:25.416Z,97.00
2018-01-27T05:09:51.434Z,97.00
2018-01-27T05:12:18.221Z,97.30
2018-01-27T05:14:44.240Z,97.30
2018-01-27T05:17:11.003Z,97.40
2018-01-27T05:19:37.115Z,97.40
2018-01-27T05:22:03.144Z,97.40
2018-01-27T05:24:29.188Z,97.30
2018-01-27T05:26:55.206Z,97.30
2018-01-27T05:29:22.172Z,97.40
2018-01-27T05:31:48.196Z,97.20
2018-01-27T05:34:14.227Z,97.60
2018-01-27T05:36:40.268Z,97.00
2018-01-27T05:39:06.284Z,97.20
2018-01-27T05:41:32.308Z,97.00
2018-01-27T05:43:58.333Z,96.70
2018-01-27T05:46:24.356Z,96.60
2018-01-27T05:48:51.126Z,96.40
2018-01-27T05:51:17.161Z,96.40
2018-01-27T05:53:43.192Z,96.40
2018-01-27T05:56:09.204Z,96.40
2018-01-27T05:58:35.264Z,96.50
2018-01-27T06:01:01.305Z,96.50
2018-01-27T06:03:28.055Z,96.70
2018-01-27T06:05:54.825Z,96.80
2018-01-27T06:08:20.860Z,96.80
2018-01-27T06:10:46.885Z,96.90
2018-01-27T06:13:13.694Z,96.90
2018-01-27T06:15:39.764Z,96.90
2018-01-27T06:18:06.571Z,96.90
2018-01-27T06:20:32.565Z,96.90
2018-01-27T06:23:01.884Z,96.90
2018-01-27T06:25:28.846Z,97.00
2018-01-27T06:27:55.076Z,97.00
2018-01-27T06:30:21.920Z,97.00
2018-01-27T06:32:49.053Z,96.70
2018-01-27T06:35:16.117Z,97.10
2018-01-27T06:37:42.396Z,96.90
2018-01-27T06:40:08.594Z,96.80
2018-01-27T06:42:34.833Z,97.00
2018-01-27T06:45:07.231Z,97.10
2018-01-27T06:47:33.265Z,97.10
2018-01-27T06:49:59.324Z,97.00
2018-01-27T06:52:26.312Z,97.10
2018-01-27T06:54:53.228Z,96.90
2018-01-27T06:57:19.468Z,97.00
2018-01-27T06:59:45.704Z,97.30
2018-01-27T07:02:11.917Z,97.30
2018-01-27T07:04:38.260Z,96.70
2018-01-27T07:07:04.483Z,96.70
2018-01-27T07:09:30.696Z,96.40
2018-01-27T07:11:56.948Z,96.40
2018-01-27T07:14:23.199Z,96.40
2018-01-27T07:16:49.428Z,96.40
2018-01-27T07:19:15.656Z,96.30
2018-01-27T07:21:41.980Z,96.50
2018-01-27T07:24:08.212Z,96.60
2018-01-27T07:26:34.520Z,96.80
2018-01-27T07:29:00.719Z,96.80
2018-01-27T07:31:26.935Z,96.80
2018-01-27T07:33:53.163Z,97.00
2018-01-27T07:36:19.378Z,96.80
2018-01-27T07:38:45.864Z,97.30
2018-01-27T07:41:12.099Z,97.20
2018-01-27T07:43:38.564Z,97.50
2018-01-27T07:46:04.781Z,97.60
2018-01-27T07:48:31.017Z,98.00
2018-01-27T07:50:57.233Z,98.10
2018-01-27T07:53:23.523Z,98.30
2018-01-27T07:55:49.752Z,98.10
2018-01-27T07:58:15.961Z,98.00
2018-01-27T08:00:45.319Z,98.20
2018-01-27T08:03:11.532Z,98.40
2018-01-27T08:05:39.468Z,98.30
2018-01-27T08:08:06.453Z,98.20
2018-01-27T08:10:32.481Z,98.20
2018-01-27T08:12:58.512Z,98.00
2018-01-27T08:15:24.733Z,98.10
2018-01-27T08:17:51.729Z,97.70
2018-01-27T08:20:18.365Z,97.70
2018-01-27T08:22:45.331Z,98.00
2018-01-27T08:25:12.261Z,98.50
2018-01-27T08:27:38.655Z,98.40
2018-01-27T08:30:08.968Z,98.60
2018-01-27T08:32:35.197Z,98.80
2018-01-27T08:35:02.169Z,98.70
2018-01-27T08:37:28.172Z,98.70
2018-01-27T08:39:54.421Z,98.70
2018-01-27T08:42:22.209Z,98.70
2018-01-27T08:44:48.428Z,98.50
2018-01-27T08:47:14.644Z,97.60
2018-01-27T08:49:40.929Z,97.20
2018-01-27T08:52:08.737Z,96.70
2018-01-27T08:54:34.956Z,96.70
2018-01-27T08:57:01.908Z,97.10
2018-01-27T08:59:28.856Z,97.00
2018-01-27T09:01:55.066Z,96.90
2018-01-27T09:04:21.256Z,96.70
2018-01-27T09:06:47.537Z,96.50
2018-01-27T09:09:13.734Z,95.90
2018-01-27T09:11:40.509Z,96.30
2018-01-27T09:14:06.825Z,96.30
2018-01-27T09:16:33.593Z,95.60
2018-01-27T09:18:59.619Z,95.60
2018-01-27T09:21:27.726Z,95.10
2018-01-27T09:23:54.065Z,95.40
2018-01-27T09:26:20.104Z,95.10
2018-01-27T09:28:46.134Z,95.20
2018-01-27T09:31:12.180Z,94.70
2018-01-27T09:33:38.368Z,94.60
2018-01-27T09:36:04.397Z,94.70
2018-01-27T09:38:30.739Z,95.20
2018-01-27T09:40:57.092Z,94.60
2018-01-27T09:43:23.298Z,94.30
2018-01-27T09:45:49.536Z,94.20
2018-01-27T09:48:15.756Z,94.20
2018-01-27T09:50:42.069Z,94.60
2018-01-27T09:53:09.324Z,94.30
2018-01-27T09:55:35.341Z,94.30
2018-01-27T09:58:01.374Z,92.80
2018-01-27T10:00:27.960Z,93.20
2018-01-27T10:02:54.968Z,92.70
2018-01-27T10:05:21.175Z,92.70
2018-01-27T10:07:47.393Z,92.50
2018-01-27T10:10:13.603Z,92.00
2018-01-27T10:12:39.836Z,92.10
2018-01-27T10:15:06.070Z,92.10
2018-01-27T10:17:33.128Z,91.90
2018-01-27T10:20:00.160Z,92.40
2018-01-27T10:22:27.153Z,92.60
2018-01-27T10:24:53.377Z,92.60
2018-01-27T10:27:19.848Z,92.60
2018-01-27T10:29:46.096Z,92.50
2018-01-27T10:32:12.604Z,92.70
2018-01-27T10:34:38.844Z,93.00
2018-01-27T10:37:05.088Z,93.60
2018-01-27T10:39:31.304Z,93.00
2018-01-27T10:41:58.272Z,93.00
2018-01-27T10:44:25.230Z,93.10
2018-01-27T10:46:51.504Z,93.10
2018-01-27T10:49:17.737Z,93.40
2018-01-27T10:51:44.037Z,93.30
2018-01-27T10:54:11.094Z,93.20
2018-01-27T10:56:38.105Z,92.50
2018-01-27T10:59:04.329Z,92.50
2018-01-27T11:01:31.273Z,93.30
2018-01-27T11:03:59.709Z,93.00
2018-01-27T11:06:26.007Z,93.00
2018-01-27T11:08:55.133Z,92.80
2018-01-27T11:11:22.080Z,92.60
2018-01-27T11:13:49.077Z,92.20
2018-01-27T11:16:15.313Z,92.20
2018-01-27T11:18:41.593Z,91.60
2018-01-27T11:21:07.836Z,92.10
2018-01-27T11:23:33.945Z,92.20
2018-01-27T11:26:03.125Z,92.00
2018-01-27T11:28:30.001Z,91.60
2018-01-27T11:30:56.992Z,91.40
2018-01-27T11:33:23.148Z,90.60
2018-01-27T11:35:49.916Z,90.90
2018-01-27T11:38:17.521Z,90.40
2018-01-27T11:40:43.733Z,90.40
2018-01-27T11:43:09.936Z,90.30
2018-01-27T11:45:36.283Z,90.50
2018-01-27T11:48:02.550Z,90.90
2018-01-27T11:50:28.764Z,90.70
2018-01-27T11:52:55.022Z,90.50
2018-01-27T11:55:21.992Z,88.40
2018-01-27T11:57:48.231Z,88.30
2018-01-27T12:00:15.184Z,88.00
2018-01-27T12:02:42.190Z,86.40
2018-01-27T12:05:09.041Z,86.20
2018-01-27T12:07:35.068Z,84.50
2018-01-27T12:10:05.159Z,84.50
2018-01-27T12:12:31.148Z,84.30
2018-01-27T12:14:57.165Z,84.30
2018-01-27T12:17:23.225Z,84.50
2018-01-27T12:19:49.453Z,82.60
2018-01-27T12:22:16.392Z,80.30
2018-01-27T12:24:45.101Z,80.10
2018-01-27T12:27:12.053Z,77.00
2018-01-27T12:29:39.317Z,77.00
2018-01-27T12:32:05.544Z,78.10
2018-01-27T12:34:32.526Z,80.30
2018-01-27T12:36:59.765Z,79.60
2018-01-27T12:39:26.757Z,82.10
2018-01-27T12:41:52.764Z,81.50
2018-01-27T12:44:18.984Z,80.70
2018-01-27T12:46:45.361Z,76.60
2018-01-27T12:49:11.620Z,74.50
2018-01-27T12:51:37.857Z,74.30
2018-01-27T12:54:04.151Z,74.30
2018-01-27T12:56:31.305Z,59.60
2018-01-27T12:58:58.209Z,59.40
2018-01-27T13:01:24.521Z,57.80
2018-01-27T13:03:50.746Z,54.20
2018-01-27T13:06:16.982Z,54.70
2018-01-27T13:08:43.440Z,51.10
2018-01-27T13:11:09.661Z,50.00
2018-01-27T13:13:35.951Z,51.30
2018-01-27T13:16:01.987Z,52.00
2018-01-27T13:18:28.745Z,50.50
2018-01-27T13:20:55.504Z,52.30
2018-01-27T13:23:21.521Z,52.30
2018-01-27T13:25:49.628Z,52.60
2018-01-27T13:28:18.114Z,50.60
2018-01-27T13:30:44.319Z,51.10
2018-01-27T13:33:10.545Z,49.30
2018-01-27T13:35:36.860Z,52.40
2018-01-27T13:38:03.376Z,53.40
2018-01-27T13:40:29.597Z,53.60
2018-01-27T13:42:59.342Z,54.70
2018-01-27T13:45:25.572Z,51.60
2018-01-27T13:47:51.808Z,51.10
2018-01-27T13:50:17.830Z,50.30
2018-01-27T13:52:43.856Z,49.20
2018-01-27T13:55:09.880Z,48.90
2018-01-27T13:57:36.780Z,50.40
2018-01-27T14:00:06.643Z,50.30
2018-01-27T14:02:32.919Z,49.80
2018-01-27T14:04:59.158Z,50.40
2018-01-27T14:07:26.180Z,51.60
2018-01-27T14:09:52.393Z,51.50
2018-01-27T14:12:18.616Z,53.20
2018-01-27T14:14:45.984Z,53.60
2018-01-27T14:17:12.947Z,55.50
2018-01-27T14:19:39.189Z,55.00
2018-01-27T14:22:05.468Z,55.00
2018-01-27T14:24:31.746Z,54.90
2018-01-27T14:26:58.717Z,54.30
2018-01-27T14:29:25.684Z,54.90
2018-01-27T14:31:51.980Z,54.80
2018-01-27T14:34:19.209Z,56.30
2018-01-27T14:36:45.240Z,57.20
2018-01-27T14:39:11.466Z,58.80
2018-01-27T14:41:37.713Z,58.70
2018-01-27T14:44:04.720Z,58.30
2018-01-27T14:46:36.600Z,58.20
2018-01-27T14:49:04.621Z,55.80
2018-01-27T14:51:30.872Z,55.80
2018-01-27T14:53:57.136Z,55.80
2018-01-27T14:56:23.380Z,55.50
2018-01-27T14:58:49.619Z,54.50
2018-01-27T15:01:15.685Z,53.60
2018-01-27T15:03:41.705Z,55.50
2018-01-27T15:06:07.757Z,56.70
2018-01-27T15:08:33.799Z,57.00
2018-01-27T15:10:59.904Z,56.70
2018-01-27T15:13:25.928Z,56.80
2018-01-27T15:15:51.964Z,56.70
2018-01-27T15:18:17.980Z,57.80
2018-01-27T15:20:44.015Z,57.20
2018-01-27T15:23:10.062Z,58.80
2018-01-27T15:25:36.117Z,59.00
2018-01-27T15:28:02.340Z,58.50
2018-01-27T15:30:29.071Z,58.10
2018-01-27T15:32:57.153Z,58.80
2018-01-27T15:35:23.360Z,59.10
2018-01-27T15:37:49.590Z,58.80
2018-01-27T15:40:15.904Z,58.80
2018-01-27T15:42:42.933Z,59.30
2018-01-27T15:45:12.084Z,59.30
2018-01-27T15:47:38.372Z,60.40
2018-01-27T15:50:04.595Z,60.10
2018-01-27T15:52:30.833Z,60.60
2018-01-27T15:54:57.058Z,59.70
2018-01-27T15:57:23.312Z,60.60
2018-01-27T15:59:49.586Z,61.60
2018-01-27T16:02:15.876Z,61.80
2018-01-27T16:04:42.113Z,61.60
2018-01-27T16:07:08.484Z,61.40
2018-01-27T16:09:34.743Z,61.90
2018-01-27T16:12:01.041Z,62.80
2018-01-27T16:14:28.108Z,63.00
2018-01-27T16:16:54.341Z,63.40
2018-01-27T16:19:20.780Z,63.80
2018-01-27T16:21:47.151Z,63.90
2018-01-27T16:24:13.377Z,64.50
2018-01-27T16:26:39.608Z,64.00
2018-01-27T16:29:05.883Z,64.40
2018-01-27T16:31:32.129Z,68.20
2018-01-27T16:33:58.380Z,69.50
2018-01-27T16:36:24.632Z,71.40
2018-01-27T16:38:51.628Z,74.70
2018-01-27T16:41:17.856Z,74.70
2018-01-27T16:43:44.831Z,79.40
2018-01-27T16:46:11.997Z,80.20
2018-01-27T16:48:38.329Z,80.20
2018-01-27T16:51:04.566Z,80.80
2018-01-27T16:53:30.575Z,81.70
2018-01-27T16:56:01.144Z,85.00
2018-01-27T16:58:27.922Z,84.80
2018-01-27T17:00:53.957Z,84.80
2018-01-27T17:03:19.985Z,85.40
2018-01-27T17:05:46.052Z,85.40
2018-01-27T17:08:12.089Z,84.70
2018-01-27T17:10:38.126Z,85.40
2018-01-27T17:13:06.743Z,85.50
2018-01-27T17:15:33.168Z,85.00
2018-01-27T17:17:59.201Z,84.60
2018-01-27T17:20:25.227Z,85.00
2018-01-27T17:22:51.251Z,85.00
2018-01-27T17:25:17.459Z,86.20
2018-01-27T17:27:43.733Z,87.50
2018-01-27T17:30:09.966Z,88.00
2018-01-27T17:32:36.225Z,87.40
2018-01-27T17:35:04.163Z,87.50
2018-01-27T17:37:30.404Z,87.90
2018-01-27T17:39:56.677Z,87.60
2018-01-27T17:42:22.973Z,87.50
2018-01-27T17:44:49.920Z,87.60
2018-01-27T17:47:16.172Z,87.50
2018-01-27T17:49:42.434Z,87.00
2018-01-27T17:52:14.578Z,88.00
2018-01-27T17:54:41.398Z,87.20
2018-01-27T17:57:07.641Z,86.90
2018-01-27T17:59:33.920Z,86.70
2018-01-27T18:02:00.193Z,86.20
2018-01-27T18:04:26.456Z,86.20
2018-01-27T18:06:52.710Z,85.40
2018-01-27T18:09:22.589Z,85.10
2018-01-27T18:11:48.785Z,85.00
2018-01-27T18:14:15.009Z,84.50
2018-01-27T18:16:41.232Z,82.30
2018-01-27T18:19:07.276Z,82.20
2018-01-27T18:21:33.555Z,81.30
2018-01-27T18:23:59.644Z,82.30
2018-01-27T18:26:26.441Z,81.80
2018-01-27T18:28:56.095Z,81.80
2018-01-27T18:31:23.984Z,81.70
2018-01-27T18:33:50.980Z,81.20
2018-01-27T18:36:17.401Z,81.30
2018-01-27T18:38:43.660Z,80.60
2018-01-27T18:41:10.208Z,80.60
2018-01-27T18:43:36.988Z,79.60
2018-01-27T18:46:04.544Z,79.70
2018-01-27T18:48:31.533Z,80.80
2018-01-27T18:50:57.752Z,80.70
2018-01-27T18:53:24.716Z,80.00
2018-01-27T18:55:51.691Z,79.90
2018-01-27T18:58:17.927Z,79.90
2018-01-27T19:00:44.872Z,78.40
2018-01-27T19:03:15.364Z,78.40
2018-01-27T19:05:41.601Z,78.40
2018-01-27T19:08:08.058Z,78.80
2018-01-27T19:10:34.325Z,77.90
2018-01-27T19:13:01.336Z,77.40
2018-01-27T19:15:27.600Z,77.70
2018-01-27T19:17:53.804Z,77.00
2018-01-27T19:20:22.956Z,76.50
2018-01-27T19:22:49.181Z,76.50
2018-01-27T19:25:17.198Z,76.90
2018-01-27T19:27:43.554Z,76.10
2018-01-27T19:30:09.584Z,76.40
2018-01-27T19:32:35.648Z,75.40
2018-01-27T19:35:01.684Z,74.70
2018-01-27T19:37:28.089Z,72.60
2018-01-27T19:39:59.274Z,73.20
2018-01-27T19:42:26.040Z,72.50
2018-01-27T19:44:52.109Z,72.50
2018-01-27T19:47:18.880Z,72.30
2018-01-27T19:49:45.119Z,72.10
2018-01-27T19:52:11.353Z,71.90
2018-01-27T19:54:41.221Z,71.90
2018-01-27T19:57:07.505Z,71.90
2018-01-27T19:59:34.577Z,71.90
2018-01-27T20:02:00.806Z,72.30
2018-01-27T20:04:27.040Z,72.00
2018-01-27T20:06:53.293Z,72.30
2018-01-27T20:09:19.504Z,71.90
2018-01-27T20:11:45.729Z,72.50
2018-01-27T20:14:12.876Z,71.80
2018-01-27T20:16:39.645Z,71.30
2018-01-27T20:19:06.387Z,72.20
2018-01-27T20:21:33.159Z,70.80
2018-01-27T20:23:59.397Z,70.70
2018-01-27T20:26:25.845Z,70.40
2018-01-27T20:28:52.665Z,69.20
2018-01-27T20:31:18.901Z,68.40
2018-01-27T20:33:44.932Z,68.70
2018-01-27T20:36:12.217Z,68.40
2018-01-27T20:38:38.383Z,68.40
2018-01-27T20:41:05.288Z,67.20
2018-01-27T20:43:32.292Z,67.20
2018-01-27T20:45:58.320Z,67.30
2018-01-27T20:48:25.281Z,67.50
2018-01-27T20:50:52.068Z,66.70
2018-01-27T20:53:18.321Z,66.60
2018-01-27T20:55:44.401Z,67.30
2018-01-27T20:58:10.587Z,66.90
2018-01-27T21:00:37.002Z,67.50
2018-01-27T21:03:03.305Z,66.50
2018-01-27T21:05:29.528Z,66.20
2018-01-27T21:07:55.795Z,65.10
2018-01-27T21:10:22.036Z,64.80
2018-01-27T21:12:48.497Z,64.20
2018-01-27T21:15:14.809Z,64.10
2018-01-27T21:17:41.057Z,64.80
2018-01-27T21:20:09.133Z,63.70
2018-01-27T21:22:36.144Z,64.70
2018-01-27T21:25:05.598Z,64.10
2018-01-27T21:27:32.408Z,65.00
2018-01-27T21:29:59.187Z,64.50
2018-01-27T21:32:25.304Z,64.50
2018-01-27T21:34:52.137Z,64.50
2018-01-27T21:37:18.388Z,64.50
2018-01-27T21:39:45.420Z,62.60
2018-01-27T21:42:11.689Z,62.70
2018-01-27T21:44:39.393Z,62.40
2018-01-27T21:47:05.814Z,61.70
2018-01-27T21:49:32.152Z,61.70
2018-01-27T21:51:59.140Z,60.80
2018-01-27T21:54:25.394Z,60.70
2018-01-27T21:56:52.348Z,60.30
2018-01-27T21:59:19.288Z,60.40
2018-01-27T22:01:46.074Z,59.40
2018-01-27T22:04:12.326Z,59.40
2018-01-27T22:06:38.402Z,58.80
2018-01-27T22:09:04.611Z,58.00
2018-01-27T22:11:30.625Z,58.80
2018-01-27T22:13:56.665Z,58.30
2018-01-27T22:16:24.945Z,57.90
2018-01-27T22:18:51.175Z,58.70
2018-01-27T22:21:19.028Z,57.90
2018-01-27T22:23:46.026Z,58.00
2018-01-27T22:26:13.269Z,57.90
2018-01-27T22:28:39.517Z,57.20
2018-01-27T22:31:05.869Z,56.10
2018-01-27T22:33:32.120Z,56.40
2018-01-27T22:35:59.198Z,56.20
2018-01-27T22:38:25.467Z,55.80
2018-01-27T22:40:51.518Z,56.10
2018-01-27T22:43:17.712Z,55.60
2018-01-27T22:45:44.540Z,56.50
2018-01-27T22:48:10.620Z,56.60
2018-01-27T22:50:36.649Z,56.60
2018-01-27T22:53:03.672Z,57.20
2018-01-27T22:55:30.153Z,57.30
2018-01-27T22:57:56.475Z,58.40
2018-01-27T23:00:22.783Z,59.10
2018-01-27T23:02:49.019Z,59.60
2018-01-27T23:05:15.284Z,60.00
2018-01-27T23:07:41.674Z,61.10
2018-01-27T23:10:07.917Z,61.20
2018-01-27T23:12:34.932Z,63.50
2018-01-27T23:15:01.200Z,63.40
2018-01-27T23:17:28.282Z,64.80
2018-01-27T23:19:54.536Z,65.70
2018-01-27T23:22:20.877Z,67.00
2018-01-27T23:24:47.183Z,69.40
2018-01-27T23:27:13.652Z,72.10
2018-01-27T23:29:40.716Z,82.10
2018-01-27T23:32:08.384Z,82.10
2018-01-27T23:34:34.495Z,88.90
2018-01-27T23:37:00.520Z,93.60
2018-01-27T23:39:26.677Z,95.70
2018-01-27T23:41:53.056Z,96.70
2018-01-27T23:44:19.255Z,97.30
2018-01-27T23:46:45.302Z,97.40
2018-01-27T23:49:11.512Z,98.30
2018-01-27T23:51:37.711Z,98.50
2018-01-27T23:54:03.977Z,98.60
2018-01-27T23:56:30.321Z,98.70
2018-01-27T23:58:57.176Z,99.10
